aviador You're here:

LFOP Decoded Metar

ROUEN in FRANCE
Report Time2017-09-25 04:00:00
UTC Time2017-09-25 04:27:41
Flight Rules vfr VFR
WindVRB at 02 kt
Visibility9999 m
Phenomena:N/A
Clouds:N/A
Expected CloudBase > 1,600 ft AGL from Temp-Dew spread
CeilingNone
Temp14°C (ISA 0)
Dew Point10°C (77% RH)
AAT13.3°C
QNH1017 hPa
Density Alt551 ft
Elevation515 ft
Report Wrong Elevation
Raw Report
LFOP 250400Z AUTO VRB02KT CAVOK 14/10 Q1017=

Extra information for LFOP:More info

Metar Taf Metar & Taf Last 4 Metars F.Rules Stats Wind Profile Meteogram Temp Stats Airport Information Weather charts Add Link Nearby VenuesMetar ALERT Operation Metar Decoded Social comments